sensor_id;sensor_type;location;lat;lon;timestamp;temperature;humidity
66708;DHT22;53622;0.000;0.000;2023-07-13T00:01:33;24.70;90.00
66708;DHT22;53622;0.000;0.000;2023-07-13T00:04:04;24.70;89.70
66708;DHT22;53622;0.000;0.000;2023-07-13T00:06:33;24.70;89.10
66708;DHT22;53622;0.000;0.000;2023-07-13T00:09:03;24.60;88.90
66708;DHT22;53622;0.000;0.000;2023-07-13T00:11:32;24.60;88.20
66708;DHT22;53622;0.000;0.000;2023-07-13T00:14:01;24.50;87.60
66708;DHT22;53622;0.000;0.000;2023-07-13T00:16:30;24.50;87.00
66708;DHT22;53622;0.000;0.000;2023-07-13T00:19:00;24.50;86.60
66708;DHT22;53622;0.000;0.000;2023-07-13T00:21:31;24.40;86.30
66708;DHT22;53622;0.000;0.000;2023-07-13T00:24:00;24.40;86.10
66708;DHT22;53622;0.000;0.000;2023-07-13T00:26:30;24.50;86.00
66708;DHT22;53622;0.000;0.000;2023-07-13T00:29:00;24.50;85.70
66708;DHT22;53622;0.000;0.000;2023-07-13T00:31:30;24.50;85.60
66708;DHT22;53622;0.000;0.000;2023-07-13T00:34:00;24.50;85.30
66708;DHT22;53622;0.000;0.000;2023-07-13T00:36:31;24.40;85.00
66708;DHT22;53622;0.000;0.000;2023-07-13T00:39:00;24.40;85.20
66708;DHT22;53622;0.000;0.000;2023-07-13T00:41:31;24.30;85.70
66708;DHT22;53622;0.000;0.000;2023-07-13T00:44:03;24.30;85.70
66708;DHT22;53622;0.000;0.000;2023-07-13T00:46:33;24.40;85.50
66708;DHT22;53622;0.000;0.000;2023-07-13T00:49:07;24.40;84.90
66708;DHT22;53622;0.000;0.000;2023-07-13T00:51:43;24.40;84.40
66708;DHT22;53622;0.000;0.000;2023-07-13T00:54:17;24.40;83.30
66708;DHT22;53622;0.000;0.000;2023-07-13T00:56:50;24.50;82.70
66708;DHT22;53622;0.000;0.000;2023-07-13T00:59:21;24.50;82.40
66708;DHT22;53622;0.000;0.000;2023-07-13T01:01:51;24.50;81.60
66708;DHT22;53622;0.000;0.000;2023-07-13T01:04:23;24.50;81.30
66708;DHT22;53622;0.000;0.000;2023-07-13T01:06:54;24.50;80.80
66708;DHT22;53622;0.000;0.000;2023-07-13T01:09:25;24.50;80.40
66708;DHT22;53622;0.000;0.000;2023-07-13T01:11:55;24.50;79.70
66708;DHT22;53622;0.000;0.000;2023-07-13T01:14:24;24.50;80.00
66708;DHT22;53622;0.000;0.000;2023-07-13T01:16:55;24.50;79.90
66708;DHT22;53622;0.000;0.000;2023-07-13T01:19:33;24.50;79.60
66708;DHT22;53622;0.000;0.000;2023-07-13T01:22:07;24.50;79.40
66708;DHT22;53622;0.000;0.000;2023-07-13T01:24:38;24.50;79.20
66708;DHT22;53622;0.000;0.000;2023-07-13T01:27:09;24.40;79.40
66708;DHT22;53622;0.000;0.000;2023-07-13T01:29:41;24.40;79.80
66708;DHT22;53622;0.000;0.000;2023-07-13T01:32:13;24.40;80.00
66708;DHT22;53622;0.000;0.000;2023-07-13T01:34:42;24.40;79.70
66708;DHT22;53622;0.000;0.000;2023-07-13T01:37:13;24.40;79.90
66708;DHT22;53622;0.000;0.000;2023-07-13T01:39:42;24.40;79.60
66708;DHT22;53622;0.000;0.000;2023-07-13T01:42:12;24.30;79.90
66708;DHT22;53622;0.000;0.000;2023-07-13T01:44:41;24.30;79.60
66708;DHT22;53622;0.000;0.000;2023-07-13T01:47:11;24.30;79.40
66708;DHT22;53622;0.000;0.000;2023-07-13T01:49:40;24.30;79.20
66708;DHT22;53622;0.000;0.000;2023-07-13T01:52:09;24.30;78.80
66708;DHT22;53622;0.000;0.000;2023-07-13T01:54:40;24.20;78.60
66708;DHT22;53622;0.000;0.000;2023-07-13T01:57:09;24.20;79.00
66708;DHT22;53622;0.000;0.000;2023-07-13T01:59:38;24.20;78.90
66708;DHT22;53622;0.000;0.000;2023-07-13T02:02:09;24.20;78.20
66708;DHT22;53622;0.000;0.000;2023-07-13T02:04:38;24.20;77.30
66708;DHT22;53622;0.000;0.000;2023-07-13T02:07:08;24.20;76.30
66708;DHT22;53622;0.000;0.000;2023-07-13T02:09:37;24.20;75.60
66708;DHT22;53622;0.000;0.000;2023-07-13T02:12:09;24.20;75.00
66708;DHT22;53622;0.000;0.000;2023-07-13T02:14:38;24.10;75.20
66708;DHT22;53622;0.000;0.000;2023-07-13T02:17:09;24.10;74.30
66708;DHT22;53622;0.000;0.000;2023-07-13T02:19:38;24.00;73.10
66708;DHT22;53622;0.000;0.000;2023-07-13T02:22:08;24.00;73.80
66708;DHT22;53622;0.000;0.000;2023-07-13T02:24:37;24.00;73.20
66708;DHT22;53622;0.000;0.000;2023-07-13T02:27:08;24.00;72.80
66708;DHT22;53622;0.000;0.000;2023-07-13T02:29:37;24.00;72.30
66708;DHT22;53622;0.000;0.000;2023-07-13T02:32:07;24.10;72.60
66708;DHT22;53622;0.000;0.000;2023-07-13T02:34:37;24.10;72.80
66708;DHT22;53622;0.000;0.000;2023-07-13T02:37:06;24.10;72.90
66708;DHT22;53622;0.000;0.000;2023-07-13T02:39:36;24.10;73.20
66708;DHT22;53622;0.000;0.000;2023-07-13T02:42:07;24.10;74.10
66708;DHT22;53622;0.000;0.000;2023-07-13T02:44:38;24.10;74.90
66708;DHT22;53622;0.000;0.000;2023-07-13T02:47:07;24.00;75.60
66708;DHT22;53622;0.000;0.000;2023-07-13T02:49:36;24.00;76.00
66708;DHT22;53622;0.000;0.000;2023-07-13T02:52:06;24.00;76.10
66708;DHT22;53622;0.000;0.000;2023-07-13T02:54:35;24.00;76.80
66708;DHT22;53622;0.000;0.000;2023-07-13T02:57:05;23.90;77.60
66708;DHT22;53622;0.000;0.000;2023-07-13T02:59:36;23.80;78.30
66708;DHT22;53622;0.000;0.000;2023-07-13T03:02:06;23.70;79.60
66708;DHT22;53622;0.000;0.000;2023-07-13T03:04:37;23.60;80.80
66708;DHT22;53622;0.000;0.000;2023-07-13T03:07:07;23.50;81.80
66708;DHT22;53622;0.000;0.000;2023-07-13T03:09:37;23.50;82.10
66708;DHT22;53622;0.000;0.000;2023-07-13T03:12:08;23.40;82.50
66708;DHT22;53622;0.000;0.000;2023-07-13T03:14:39;23.40;82.60
66708;DHT22;53622;0.000;0.000;2023-07-13T03:17:08;23.30;82.50
66708;DHT22;53622;0.000;0.000;2023-07-13T03:19:40;23.30;83.30
66708;DHT22;53622;0.000;0.000;2023-07-13T03:22:10;23.10;84.40
66708;DHT22;53622;0.000;0.000;2023-07-13T03:24:40;23.10;82.80
66708;DHT22;53622;0.000;0.000;2023-07-13T03:27:09;23.20;81.90
66708;DHT22;53622;0.000;0.000;2023-07-13T03:29:43;23.20;80.00
66708;DHT22;53622;0.000;0.000;2023-07-13T03:32:15;23.10;79.80
66708;DHT22;53622;0.000;0.000;2023-07-13T03:34:45;23.10;79.10
66708;DHT22;53622;0.000;0.000;2023-07-13T03:37:14;23.10;76.60
66708;DHT22;53622;0.000;0.000;2023-07-13T03:39:43;23.10;76.10
66708;DHT22;53622;0.000;0.000;2023-07-13T03:42:12;23.20;76.60
66708;DHT22;53622;0.000;0.000;2023-07-13T03:44:43;23.20;76.90
66708;DHT22;53622;0.000;0.000;2023-07-13T03:47:20;23.20;77.50
66708;DHT22;53622;0.000;0.000;2023-07-13T03:49:49;23.20;75.90
66708;DHT22;53622;0.000;0.000;2023-07-13T03:52:18;23.30;76.50
66708;DHT22;53622;0.000;0.000;2023-07-13T03:54:48;23.30;76.90
66708;DHT22;53622;0.000;0.000;2023-07-13T03:57:18;23.30;77.20
66708;DHT22;53622;0.000;0.000;2023-07-13T03:59:49;23.40;75.90
66708;DHT22;53622;0.000;0.000;2023-07-13T04:02:18;23.40;75.50
66708;DHT22;53622;0.000;0.000;2023-07-13T04:04:47;23.50;74.20
66708;DHT22;53622;0.000;0.000;2023-07-13T04:07:17;23.50;73.80
66708;DHT22;53622;0.000;0.000;2023-07-13T04:09:46;23.50;73.60
66708;DHT22;53622;0.000;0.000;2023-07-13T04:12:16;23.50;73.40
66708;DHT22;53622;0.000;0.000;2023-07-13T04:14:45;23.50;73.10
66708;DHT22;53622;0.000;0.000;2023-07-13T04:17:16;23.50;73.00
66708;DHT22;53622;0.000;0.000;2023-07-13T04:19:45;23.50;73.70
66708;DHT22;53622;0.000;0.000;2023-07-13T04:22:14;23.40;74.10
66708;DHT22;53622;0.000;0.000;2023-07-13T04:24:44;23.40;74.30
66708;DHT22;53622;0.000;0.000;2023-07-13T04:27:13;23.30;75.10
66708;DHT22;53622;0.000;0.000;2023-07-13T04:29:42;23.30;75.90
66708;DHT22;53622;0.000;0.000;2023-07-13T04:32:12;23.20;75.60
66708;DHT22;53622;0.000;0.000;2023-07-13T04:34:43;23.20;75.00
66708;DHT22;53622;0.000;0.000;2023-07-13T04:37:12;23.20;75.10
66708;DHT22;53622;0.000;0.000;2023-07-13T04:39:42;23.10;76.20
66708;DHT22;53622;0.000;0.000;2023-07-13T04:42:11;23.00;77.10
66708;DHT22;53622;0.000;0.000;2023-07-13T04:44:40;23.00;78.30
66708;DHT22;53622;0.000;0.000;2023-07-13T04:47:10;22.90;77.30
66708;DHT22;53622;0.000;0.000;2023-07-13T04:49:40;22.90;76.40
66708;DHT22;53622;0.000;0.000;2023-07-13T04:52:11;22.80;76.10
66708;DHT22;53622;0.000;0.000;2023-07-13T04:54:40;22.90;75.40
66708;DHT22;53622;0.000;0.000;2023-07-13T04:57:10;23.00;75.50
66708;DHT22;53622;0.000;0.000;2023-07-13T05:00:04;23.20;74.90
66708;DHT22;53622;0.000;0.000;2023-07-13T05:02:37;23.40;74.30
66708;DHT22;53622;0.000;0.000;2023-07-13T05:05:18;23.60;73.50
66708;DHT22;53622;0.000;0.000;2023-07-13T05:08:19;23.70;73.50
66708;DHT22;53622;0.000;0.000;2023-07-13T05:10:49;23.90;73.00
66708;DHT22;53622;0.000;0.000;2023-07-13T05:13:19;24.00;72.70
66708;DHT22;53622;0.000;0.000;2023-07-13T05:16:08;24.10;72.80
66708;DHT22;53622;0.000;0.000;2023-07-13T05:18:37;24.20;73.40
66708;DHT22;53622;0.000;0.000;2023-07-13T05:21:11;24.20;73.90
66708;DHT22;53622;0.000;0.000;2023-07-13T05:23:43;24.30;74.90
66708;DHT22;53622;0.000;0.000;2023-07-13T05:26:15;24.30;75.20
66708;DHT22;53622;0.000;0.000;2023-07-13T05:28:45;24.30;75.40
66708;DHT22;53622;0.000;0.000;2023-07-13T05:31:14;24.40;74.70
66708;DHT22;53622;0.000;0.000;2023-07-13T05:33:44;24.40;74.50
66708;DHT22;53622;0.000;0.000;2023-07-13T05:36:24;24.50;74.30
66708;DHT22;53622;0.000;0.000;2023-07-13T05:39:00;24.50;74.50
66708;DHT22;53622;0.000;0.000;2023-07-13T05:41:29;24.50;74.50
66708;DHT22;53622;0.000;0.000;2023-07-13T05:44:01;24.60;75.80
66708;DHT22;53622;0.000;0.000;2023-07-13T05:46:32;24.70;75.50
66708;DHT22;53622;0.000;0.000;2023-07-13T05:49:02;24.70;75.10
66708;DHT22;53622;0.000;0.000;2023-07-13T05:51:32;24.80;74.90
66708;DHT22;53622;0.000;0.000;2023-07-13T05:54:03;24.80;75.00
66708;DHT22;53622;0.000;0.000;2023-07-13T05:56:32;24.70;75.40
66708;DHT22;53622;0.000;0.000;2023-07-13T05:59:01;24.80;75.60
66708;DHT22;53622;0.000;0.000;2023-07-13T06:01:31;24.80;75.50
66708;DHT22;53622;0.000;0.000;2023-07-13T06:04:01;24.90;75.50
66708;DHT22;53622;0.000;0.000;2023-07-13T06:06:30;24.90;75.10
66708;DHT22;53622;0.000;0.000;2023-07-13T06:08:59;25.00;75.00
66708;DHT22;53622;0.000;0.000;2023-07-13T06:11:30;25.00;74.70
66708;DHT22;53622;0.000;0.000;2023-07-13T06:13:59;24.90;74.20
66708;DHT22;53622;0.000;0.000;2023-07-13T06:16:29;24.90;73.80
66708;DHT22;53622;0.000;0.000;2023-07-13T06:18:58;24.90;73.50
66708;DHT22;53622;0.000;0.000;2023-07-13T06:21:27;24.80;73.40
66708;DHT22;53622;0.000;0.000;2023-07-13T06:23:57;24.80;73.20
66708;DHT22;53622;0.000;0.000;2023-07-13T06:26:26;24.80;73.10
66708;DHT22;53622;0.000;0.000;2023-07-13T06:28:57;24.80;72.70
66708;DHT22;53622;0.000;0.000;2023-07-13T06:31:26;24.80;72.50
66708;DHT22;53622;0.000;0.000;2023-07-13T06:33:56;24.80;72.50
66708;DHT22;53622;0.000;0.000;2023-07-13T06:36:25;24.80;72.80
66708;DHT22;53622;0.000;0.000;2023-07-13T06:38:54;24.80;73.10
66708;DHT22;53622;0.000;0.000;2023-07-13T06:41:23;24.90;73.40
66708;DHT22;53622;0.000;0.000;2023-07-13T06:43:54;24.80;73.80
66708;DHT22;53622;0.000;0.000;2023-07-13T06:46:24;24.80;74.00
66708;DHT22;53622;0.000;0.000;2023-07-13T06:48:54;24.80;74.00
66708;DHT22;53622;0.000;0.000;2023-07-13T06:51:23;24.80;74.20
66708;DHT22;53622;0.000;0.000;2023-07-13T06:53:54;24.80;74.30
66708;DHT22;53622;0.000;0.000;2023-07-13T06:56:23;24.90;74.40
66708;DHT22;53622;0.000;0.000;2023-07-13T06:58:53;24.80;74.50
66708;DHT22;53622;0.000;0.000;2023-07-13T07:01:23;24.80;74.50
66708;DHT22;53622;0.000;0.000;2023-07-13T07:03:53;24.90;74.70
66708;DHT22;53622;0.000;0.000;2023-07-13T07:06:22;24.90;74.70
66708;DHT22;53622;0.000;0.000;2023-07-13T07:08:53;24.90;75.00
66708;DHT22;53622;0.000;0.000;2023-07-13T07:11:23;25.00;75.00
66708;DHT22;53622;0.000;0.000;2023-07-13T07:13:54;25.00;74.80
66708;DHT22;53622;0.000;0.000;2023-07-13T07:16:25;25.00;74.90
66708;DHT22;53622;0.000;0.000;2023-07-13T07:18:54;25.10;75.20
66708;DHT22;53622;0.000;0.000;2023-07-13T07:21:24;25.10;75.30
66708;DHT22;53622;0.000;0.000;2023-07-13T07:23:53;25.10;75.10
66708;DHT22;53622;0.000;0.000;2023-07-13T07:26:23;25.00;75.20
66708;DHT22;53622;0.000;0.000;2023-07-13T07:28:57;25.00;75.20
66708;DHT22;53622;0.000;0.000;2023-07-13T07:31:30;25.10;75.20
66708;DHT22;53622;0.000;0.000;2023-07-13T07:34:02;25.10;75.30
66708;DHT22;53622;0.000;0.000;2023-07-13T07:36:32;25.00;75.40
66708;DHT22;53622;0.000;0.000;2023-07-13T07:39:04;25.00;75.50
66708;DHT22;53622;0.000;0.000;2023-07-13T07:41:34;25.00;75.60
66708;DHT22;53622;0.000;0.000;2023-07-13T07:44:06;25.00;75.60
66708;DHT22;53622;0.000;0.000;2023-07-13T07:46:39;25.00;75.70
66708;DHT22;53622;0.000;0.000;2023-07-13T07:49:09;25.00;75.60
66708;DHT22;53622;0.000;0.000;2023-07-13T07:51:39;25.10;75.60
66708;DHT22;53622;0.000;0.000;2023-07-13T07:54:08;25.00;75.50
66708;DHT22;53622;0.000;0.000;2023-07-13T07:56:43;25.00;75.50
66708;DHT22;53622;0.000;0.000;2023-07-13T07:59:32;25.00;75.50
66708;DHT22;53622;0.000;0.000;2023-07-13T08:02:08;25.10;75.50
66708;DHT22;53622;0.000;0.000;2023-07-13T08:04:57;25.10;75.30
66708;DHT22;53622;0.000;0.000;2023-07-13T08:07:30;25.10;75.10
66708;DHT22;53622;0.000;0.000;2023-07-13T08:10:00;25.20;75.10
66708;DHT22;53622;0.000;0.000;2023-07-13T08:12:29;25.20;75.00
66708;DHT22;53622;0.000;0.000;2023-07-13T08:15:01;25.20;74.70
66708;DHT22;53622;0.000;0.000;2023-07-13T08:17:32;25.30;74.70
66708;DHT22;53622;0.000;0.000;2023-07-13T08:20:02;25.30;74.50
66708;DHT22;53622;0.000;0.000;2023-07-13T08:22:31;25.30;74.40
66708;DHT22;53622;0.000;0.000;2023-07-13T08:25:01;25.30;74.40
66708;DHT22;53622;0.000;0.000;2023-07-13T08:27:31;25.30;74.40
66708;DHT22;53622;0.000;0.000;2023-07-13T08:30:00;25.30;74.40
66708;DHT22;53622;0.000;0.000;2023-07-13T08:32:29;25.30;74.20
66708;DHT22;53622;0.000;0.000;2023-07-13T08:35:00;25.40;74.10
66708;DHT22;53622;0.000;0.000;2023-07-13T08:37:29;25.40;74.10
66708;DHT22;53622;0.000;0.000;2023-07-13T08:39:58;25.40;74.00
66708;DHT22;53622;0.000;0.000;2023-07-13T08:42:33;25.40;73.90
66708;DHT22;53622;0.000;0.000;2023-07-13T08:45:13;25.40;73.90
66708;DHT22;53622;0.000;0.000;2023-07-13T08:47:48;25.40;73.90
66708;DHT22;53622;0.000;0.000;2023-07-13T08:50:26;25.40;73.90
66708;DHT22;53622;0.000;0.000;2023-07-13T08:52:57;25.40;73.90
66708;DHT22;53622;0.000;0.000;2023-07-13T08:55:30;25.50;73.80
66708;DHT22;53622;0.000;0.000;2023-07-13T08:58:09;25.50;73.80
66708;DHT22;53622;0.000;0.000;2023-07-13T09:00:44;25.50;73.80
66708;DHT22;53622;0.000;0.000;2023-07-13T09:03:21;25.50;73.60
66708;DHT22;53622;0.000;0.000;2023-07-13T09:05:56;25.50;73.60
66708;DHT22;53622;0.000;0.000;2023-07-13T09:08:49;25.50;73.50
66708;DHT22;53622;0.000;0.000;2023-07-13T09:11:34;25.50;73.50
66708;DHT22;53622;0.000;0.000;2023-07-13T09:17:05;25.50;73.40
66708;DHT22;53622;0.000;0.000;2023-07-13T09:19:35;25.50;73.60
66708;DHT22;53622;0.000;0.000;2023-07-13T09:22:12;25.50;73.40
66708;DHT22;53622;0.000;0.000;2023-07-13T09:24:54;25.50;73.30
66708;DHT22;53622;0.000;0.000;2023-07-13T09:27:30;25.50;73.30
66708;DHT22;53622;0.000;0.000;2023-07-13T09:30:17;25.50;73.30
66708;DHT22;53622;0.000;0.000;2023-07-13T09:32:52;25.50;73.20
66708;DHT22;53622;0.000;0.000;2023-07-13T09:35:25;25.50;73.30
66708;DHT22;53622;0.000;0.000;2023-07-13T09:38:13;25.50;73.30
66708;DHT22;53622;0.000;0.000;2023-07-13T09:43:37;25.50;73.30
66708;DHT22;53622;0.000;0.000;2023-07-13T09:46:20;25.50;73.30
66708;DHT22;53622;0.000;0.000;2023-07-13T09:48:50;25.50;73.30
66708;DHT22;53622;0.000;0.000;2023-07-13T09:51:20;25.50;73.30
66708;DHT22;53622;0.000;0.000;2023-07-13T09:53:51;25.50;73.20
66708;DHT22;53622;0.000;0.000;2023-07-13T09:56:21;25.50;73.20
66708;DHT22;53622;0.000;0.000;2023-07-13T09:58:50;25.50;73.20
66708;DHT22;53622;0.000;0.000;2023-07-13T10:01:34;25.60;73.30
66708;DHT22;53622;0.000;0.000;2023-07-13T10:04:11;25.60;73.30
66708;DHT22;53622;0.000;0.000;2023-07-13T10:06:41;25.60;73.30
66708;DHT22;53622;0.000;0.000;2023-07-13T10:09:15;25.60;73.30
66708;DHT22;53622;0.000;0.000;2023-07-13T10:11:45;25.60;73.30
66708;DHT22;53622;0.000;0.000;2023-07-13T10:14:16;25.50;73.20
66708;DHT22;53622;0.000;0.000;2023-07-13T10:16:46;25.60;73.30
66708;DHT22;53622;0.000;0.000;2023-07-13T10:19:21;25.50;73.30
66708;DHT22;53622;0.000;0.000;2023-07-13T10:21:55;25.60;73.40
66708;DHT22;53622;0.000;0.000;2023-07-13T10:24:27;25.50;73.30
66708;DHT22;53622;0.000;0.000;2023-07-13T10:27:05;25.60;73.30
66708;DHT22;53622;0.000;0.000;2023-07-13T10:29:42;25.60;73.30
66708;DHT22;53622;0.000;0.000;2023-07-13T10:32:13;25.50;73.30
66708;DHT22;53622;0.000;0.000;2023-07-13T10:34:44;25.60;73.30
66708;DHT22;53622;0.000;0.000;2023-07-13T10:37:19;25.50;73.10
66708;DHT22;53622;0.000;0.000;2023-07-13T10:39:54;25.50;73.20
66708;DHT22;53622;0.000;0.000;2023-07-13T10:42:28;25.60;73.40
66708;DHT22;53622;0.000;0.000;2023-07-13T10:44:58;25.50;73.30
66708;DHT22;53622;0.000;0.000;2023-07-13T10:47:28;25.50;73.30
66708;DHT22;53622;0.000;0.000;2023-07-13T10:49:58;25.60;73.30
66708;DHT22;53622;0.000;0.000;2023-07-13T10:52:43;25.60;73.30
66708;DHT22;53622;0.000;0.000;2023-07-13T10:55:36;25.50;73.20
66708;DHT22;53622;0.000;0.000;2023-07-13T10:58:14;25.60;73.30
66708;DHT22;53622;0.000;0.000;2023-07-13T11:00:47;25.60;73.30
66708;DHT22;53622;0.000;0.000;2023-07-13T11:03:20;25.50;73.30
66708;DHT22;53622;0.000;0.000;2023-07-13T11:05:51;25.50;73.40
66708;DHT22;53622;0.000;0.000;2023-07-13T11:08:33;25.50;73.40
66708;DHT22;53622;0.000;0.000;2023-07-13T11:11:33;25.60;73.50
66708;DHT22;53622;0.000;0.000;2023-07-13T11:14:09;25.60;73.70
66708;DHT22;53622;0.000;0.000;2023-07-13T11:16:54;25.50;73.70
66708;DHT22;53622;0.000;0.000;2023-07-13T11:19:40;25.50;73.70
66708;DHT22;53622;0.000;0.000;2023-07-13T11:24:59;25.50;73.60
66708;DHT22;53622;0.000;0.000;2023-07-13T11:27:42;25.50;73.60
66708;DHT22;53622;0.000;0.000;2023-07-13T11:30:31;25.50;73.40
66708;DHT22;53622;0.000;0.000;2023-07-13T11:33:07;25.60;73.30
66708;DHT22;53622;0.000;0.000;2023-07-13T11:35:53;25.60;73.00
66708;DHT22;53622;0.000;0.000;2023-07-13T11:38:33;25.70;72.20
66708;DHT22;53622;0.000;0.000;2023-07-13T11:41:06;25.70;71.40
66708;DHT22;53622;0.000;0.000;2023-07-13T11:43:37;25.70;71.20
66708;DHT22;53622;0.000;0.000;2023-07-13T11:46:15;25.70;71.00
66708;DHT22;53622;0.000;0.000;2023-07-13T11:48:45;25.60;70.90
66708;DHT22;53622;0.000;0.000;2023-07-13T11:51:20;25.60;70.50
66708;DHT22;53622;0.000;0.000;2023-07-13T11:53:52;25.60;69.60
66708;DHT22;53622;0.000;0.000;2023-07-13T11:56:25;25.60;69.40
66708;DHT22;53622;0.000;0.000;2023-07-13T11:58:57;25.60;68.90
66708;DHT22;53622;0.000;0.000;2023-07-13T12:01:29;25.60;68.80
66708;DHT22;53622;0.000;0.000;2023-07-13T12:04:02;25.70;68.90
66708;DHT22;53622;0.000;0.000;2023-07-13T12:06:35;25.60;68.50
66708;DHT22;53622;0.000;0.000;2023-07-13T12:09:12;25.60;68.20
66708;DHT22;53622;0.000;0.000;2023-07-13T12:11:43;25.70;67.10
66708;DHT22;53622;0.000;0.000;2023-07-13T12:14:16;25.70;66.40
66708;DHT22;53622;0.000;0.000;2023-07-13T12:16:46;25.70;64.10
66708;DHT22;53622;0.000;0.000;2023-07-13T12:19:18;25.70;64.30
66708;DHT22;53622;0.000;0.000;2023-07-13T12:21:49;25.70;64.40
66708;DHT22;53622;0.000;0.000;2023-07-13T12:24:21;25.70;64.70
66708;DHT22;53622;0.000;0.000;2023-07-13T12:26:52;25.70;65.20
66708;DHT22;53622;0.000;0.000;2023-07-13T12:29:23;25.70;65.50
66708;DHT22;53622;0.000;0.000;2023-07-13T12:31:53;25.70;65.90
66708;DHT22;53622;0.000;0.000;2023-07-13T12:34:25;25.70;66.50
66708;DHT22;53622;0.000;0.000;2023-07-13T12:36:58;25.60;66.80
66708;DHT22;53622;0.000;0.000;2023-07-13T12:39:32;25.60;67.10
66708;DHT22;53622;0.000;0.000;2023-07-13T12:42:19;25.70;67.30
66708;DHT22;53622;0.000;0.000;2023-07-13T12:44:58;25.70;67.40
66708;DHT22;53622;0.000;0.000;2023-07-13T12:47:28;25.70;67.60
66708;DHT22;53622;0.000;0.000;2023-07-13T12:49:59;25.70;67.80
66708;DHT22;53622;0.000;0.000;2023-07-13T12:52:31;25.60;67.90
66708;DHT22;53622;0.000;0.000;2023-07-13T12:55:05;25.70;68.10
66708;DHT22;53622;0.000;0.000;2023-07-13T12:57:41;25.70;68.20
66708;DHT22;53622;0.000;0.000;2023-07-13T13:00:23;25.70;68.40
66708;DHT22;53622;0.000;0.000;2023-07-13T13:02:55;25.70;68.50
66708;DHT22;53622;0.000;0.000;2023-07-13T13:05:45;25.60;68.60
66708;DHT22;53622;0.000;0.000;2023-07-13T13:08:15;25.70;68.80
66708;DHT22;53622;0.000;0.000;2023-07-13T13:10:45;25.60;68.90
66708;DHT22;53622;0.000;0.000;2023-07-13T13:13:15;25.60;69.10
66708;DHT22;53622;0.000;0.000;2023-07-13T13:15:46;25.60;69.50
66708;DHT22;53622;0.000;0.000;2023-07-13T13:18:18;25.60;69.70
66708;DHT22;53622;0.000;0.000;2023-07-13T13:20:48;25.60;69.90
66708;DHT22;53622;0.000;0.000;2023-07-13T13:23:19;25.60;69.90
66708;DHT22;53622;0.000;0.000;2023-07-13T13:25:51;25.60;69.80
66708;DHT22;53622;0.000;0.000;2023-07-13T13:28:21;25.60;70.10
66708;DHT22;53622;0.000;0.000;2023-07-13T13:30:52;25.60;70.20
66708;DHT22;53622;0.000;0.000;2023-07-13T13:33:22;25.60;70.30
66708;DHT22;53622;0.000;0.000;2023-07-13T13:35:51;25.60;70.30
66708;DHT22;53622;0.000;0.000;2023-07-13T13:38:25;25.70;70.50
66708;DHT22;53622;0.000;0.000;2023-07-13T13:40:55;25.70;70.60
66708;DHT22;53622;0.000;0.000;2023-07-13T13:43:26;25.60;70.70
66708;DHT22;53622;0.000;0.000;2023-07-13T13:45:58;25.70;70.70
66708;DHT22;53622;0.000;0.000;2023-07-13T13:48:31;25.70;70.70
66708;DHT22;53622;0.000;0.000;2023-07-13T13:51:06;25.70;70.80
66708;DHT22;53622;0.000;0.000;2023-07-13T13:53:40;25.70;70.80
66708;DHT22;53622;0.000;0.000;2023-07-13T13:56:10;25.70;70.90
66708;DHT22;53622;0.000;0.000;2023-07-13T13:58:40;25.70;71.70
66708;DHT22;53622;0.000;0.000;2023-07-13T14:01:17;25.70;71.00
66708;DHT22;53622;0.000;0.000;2023-07-13T14:03:47;25.70;71.00
66708;DHT22;53622;0.000;0.000;2023-07-13T14:06:19;25.70;71.10
66708;DHT22;53622;0.000;0.000;2023-07-13T14:08:49;25.70;71.20
66708;DHT22;53622;0.000;0.000;2023-07-13T14:11:20;25.70;71.10
66708;DHT22;53622;0.000;0.000;2023-07-13T14:13:53;25.80;71.10
66708;DHT22;53622;0.000;0.000;2023-07-13T14:16:28;25.80;71.10
66708;DHT22;53622;0.000;0.000;2023-07-13T14:19:00;25.80;71.20
66708;DHT22;53622;0.000;0.000;2023-07-13T14:21:30;25.80;71.00
66708;DHT22;53622;0.000;0.000;2023-07-13T14:23:59;25.80;71.00
66708;DHT22;53622;0.000;0.000;2023-07-13T14:26:32;25.80;70.90
66708;DHT22;53622;0.000;0.000;2023-07-13T14:29:10;25.80;70.90
66708;DHT22;53622;0.000;0.000;2023-07-13T14:31:42;25.90;71.00
66708;DHT22;53622;0.000;0.000;2023-07-13T14:34:12;25.90;71.00
66708;DHT22;53622;0.000;0.000;2023-07-13T14:36:43;25.90;71.10
66708;DHT22;53622;0.000;0.000;2023-07-13T14:39:17;25.90;71.20
66708;DHT22;53622;0.000;0.000;2023-07-13T14:41:50;25.90;71.20
66708;DHT22;53622;0.000;0.000;2023-07-13T14:44:22;25.90;71.10
66708;DHT22;53622;0.000;0.000;2023-07-13T14:46:53;25.90;71.20
66708;DHT22;53622;0.000;0.000;2023-07-13T14:49:28;26.00;71.10
66708;DHT22;53622;0.000;0.000;2023-07-13T14:52:00;26.00;71.10
66708;DHT22;53622;0.000;0.000;2023-07-13T14:54:30;26.00;71.10
66708;DHT22;53622;0.000;0.000;2023-07-13T14:56:59;26.00;71.30
66708;DHT22;53622;0.000;0.000;2023-07-13T14:59:29;25.90;71.40
66708;DHT22;53622;0.000;0.000;2023-07-13T15:02:00;25.90;71.60
66708;DHT22;53622;0.000;0.000;2023-07-13T15:04:30;26.00;71.70
66708;DHT22;53622;0.000;0.000;2023-07-13T15:07:02;26.00;71.70
66708;DHT22;53622;0.000;0.000;2023-07-13T15:09:31;26.00;71.60
66708;DHT22;53622;0.000;0.000;2023-07-13T15:12:01;26.00;71.70
66708;DHT22;53622;0.000;0.000;2023-07-13T15:14:30;26.00;71.60
66708;DHT22;53622;0.000;0.000;2023-07-13T15:17:02;26.00;71.50
66708;DHT22;53622;0.000;0.000;2023-07-13T15:19:32;26.00;71.40
66708;DHT22;53622;0.000;0.000;2023-07-13T15:22:01;26.00;71.40
66708;DHT22;53622;0.000;0.000;2023-07-13T15:24:31;26.00;71.40
66708;DHT22;53622;0.000;0.000;2023-07-13T15:27:00;26.00;71.30
66708;DHT22;53622;0.000;0.000;2023-07-13T15:29:30;26.00;71.30
66708;DHT22;53622;0.000;0.000;2023-07-13T15:32:02;26.00;71.20
66708;DHT22;53622;0.000;0.000;2023-07-13T15:34:32;26.10;71.50
66708;DHT22;53622;0.000;0.000;2023-07-13T15:37:01;26.10;70.90
66708;DHT22;53622;0.000;0.000;2023-07-13T15:39:30;26.10;70.70
66708;DHT22;53622;0.000;0.000;2023-07-13T15:42:00;26.10;70.70
66708;DHT22;53622;0.000;0.000;2023-07-13T15:44:31;26.10;70.50
66708;DHT22;53622;0.000;0.000;2023-07-13T15:47:03;26.10;71.30
66708;DHT22;53622;0.000;0.000;2023-07-13T15:49:33;26.10;70.80
66708;DHT22;53622;0.000;0.000;2023-07-13T15:52:03;26.10;70.90
66708;DHT22;53622;0.000;0.000;2023-07-13T15:54:33;26.10;71.10
66708;DHT22;53622;0.000;0.000;2023-07-13T15:57:03;26.10;71.10
66708;DHT22;53622;0.000;0.000;2023-07-13T15:59:34;26.10;71.30
66708;DHT22;53622;0.000;0.000;2023-07-13T16:02:12;26.10;71.40
66708;DHT22;53622;0.000;0.000;2023-07-13T16:04:42;26.20;71.50
66708;DHT22;53622;0.000;0.000;2023-07-13T16:07:13;26.20;71.40
66708;DHT22;53622;0.000;0.000;2023-07-13T16:09:44;26.20;71.40
66708;DHT22;53622;0.000;0.000;2023-07-13T16:12:15;26.20;71.60
66708;DHT22;53622;0.000;0.000;2023-07-13T16:14:44;26.20;71.40
66708;DHT22;53622;0.000;0.000;2023-07-13T16:17:15;26.20;70.10
66708;DHT22;53622;0.000;0.000;2023-07-13T16:19:45;26.30;69.50
66708;DHT22;53622;0.000;0.000;2023-07-13T16:22:15;26.20;69.90
66708;DHT22;53622;0.000;0.000;2023-07-13T16:24:46;26.30;69.70